Terminal Aerodrome Forecast
Issued by NWS Charleston, WV

Current Version | Previous Version | Graphics & Text | Print | Product List | Glossary On
Versions: 1 2 3 4 5 6 7 8 9 10 11 12 13 14 15 16 17 18 19 20 21 22 23 24 25 26 27 28 29 30
000
FTUS41 KRLX 011700
TAFCRW
TAF
KCRW 011737Z 0118/0218 24010G15KT P6SM VCSH BKN035
      TEMPO 0118/0119 BKN025
     FM012100 23012G17KT P6SM SHRA VCTS SCT030CB BKN040
      TEMPO 0121/0122 2SM SHRA BKN025
     FM012300 22004KT P6SM BKN035
     FM020400 VRB03KT 6SM BR SCT045
     FM020800 00000KT 3SM BR SCT045
     FM021100 00000KT 2SM BR FEW001 SCT035
     FM021300 23008KT P6SM BKN035
     FM021600 23008KT P6SM VCTS BKN035CB=

USA.gov is the U.S. government's official web portal to all federal, state and local government web resources and services.